sensor_id;sensor_type;location;lat;lon;timestamp;P1;durP1;ratioP1;P2;durP2;ratioP2
78752;SDS011;68072;51.688;7.842;2023-04-16T00:01:18;43.75;;;18.23;;
78752;SDS011;68072;51.688;7.842;2023-04-16T00:03:43;46.53;;;18.13;;
78752;SDS011;68072;51.688;7.842;2023-04-16T00:06:09;46.13;;;19.33;;
78752;SDS011;68072;51.688;7.842;2023-04-16T00:08:35;44.53;;;16.38;;
78752;SDS011;68072;51.688;7.842;2023-04-16T00:11:01;49.42;;;20.42;;
78752;SDS011;68072;51.688;7.842;2023-04-16T00:13:26;42.13;;;17.80;;
78752;SDS011;68072;51.688;7.842;2023-04-16T00:15:52;44.53;;;18.48;;
78752;SDS011;68072;51.688;7.842;2023-04-16T00:18:18;44.65;;;18.60;;
78752;SDS011;68072;51.688;7.842;2023-04-16T00:20:46;50.33;;;18.20;;
78752;SDS011;68072;51.688;7.842;2023-04-16T00:23:12;46.00;;;19.15;;
78752;SDS011;68072;51.688;7.842;2023-04-16T00:25:37;47.47;;;19.60;;
78752;SDS011;68072;51.688;7.842;2023-04-16T00:28:03;57.20;;;20.70;;
78752;SDS011;68072;51.688;7.842;2023-04-16T00:30:29;45.55;;;17.95;;
78752;SDS011;68072;51.688;7.842;2023-04-16T00:32:54;50.33;;;19.55;;
78752;SDS011;68072;51.688;7.842;2023-04-16T00:35:20;42.70;;;18.38;;
78752;SDS011;68072;51.688;7.842;2023-04-16T00:37:45;55.83;;;22.58;;
78752;SDS011;68072;51.688;7.842;2023-04-16T00:40:10;51.03;;;19.98;;
78752;SDS011;68072;51.688;7.842;2023-04-16T00:42:36;50.22;;;20.15;;
78752;SDS011;68072;51.688;7.842;2023-04-16T00:45:02;50.53;;;19.48;;
78752;SDS011;68072;51.688;7.842;2023-04-16T00:47:29;44.10;;;17.33;;
78752;SDS011;68072;51.688;7.842;2023-04-16T00:49:55;51.88;;;18.95;;
78752;SDS011;68072;51.688;7.842;2023-04-16T00:52:20;53.38;;;19.90;;
78752;SDS011;68072;51.688;7.842;2023-04-16T00:54:45;49.80;;;18.40;;
78752;SDS011;68072;51.688;7.842;2023-04-16T00:57:12;53.60;;;19.92;;
78752;SDS011;68072;51.688;7.842;2023-04-16T00:59:38;47.25;;;17.85;;
78752;SDS011;68072;51.688;7.842;2023-04-16T01:02:04;49.80;;;17.70;;
78752;SDS011;68072;51.688;7.842;2023-04-16T01:04:30;47.80;;;18.48;;
78752;SDS011;68072;51.688;7.842;2023-04-16T01:06:55;49.13;;;19.30;;
78752;SDS011;68072;51.688;7.842;2023-04-16T01:09:21;45.47;;;17.77;;
78752;SDS011;68072;51.688;7.842;2023-04-16T01:11:46;47.10;;;18.85;;
78752;SDS011;68072;51.688;7.842;2023-04-16T01:14:12;44.72;;;18.35;;
78752;SDS011;68072;51.688;7.842;2023-04-16T01:16:37;48.08;;;17.63;;
78752;SDS011;68072;51.688;7.842;2023-04-16T01:19:02;46.65;;;17.65;;
78752;SDS011;68072;51.688;7.842;2023-04-16T01:21:28;47.05;;;18.50;;
78752;SDS011;68072;51.688;7.842;2023-04-16T01:23:53;35.78;;;15.30;;
78752;SDS011;68072;51.688;7.842;2023-04-16T01:26:19;43.83;;;17.27;;
78752;SDS011;68072;51.688;7.842;2023-04-16T01:28:44;46.08;;;18.55;;
78752;SDS011;68072;51.688;7.842;2023-04-16T01:31:09;52.67;;;19.65;;
78752;SDS011;68072;51.688;7.842;2023-04-16T01:33:35;53.60;;;19.17;;
78752;SDS011;68072;51.688;7.842;2023-04-16T01:36:00;59.17;;;17.90;;
78752;SDS011;68072;51.688;7.842;2023-04-16T01:38:26;52.95;;;18.75;;
78752;SDS011;68072;51.688;7.842;2023-04-16T01:40:57;47.17;;;18.65;;
78752;SDS011;68072;51.688;7.842;2023-04-16T01:43:23;41.58;;;16.13;;
78752;SDS011;68072;51.688;7.842;2023-04-16T01:45:49;57.55;;;19.20;;
78752;SDS011;68072;51.688;7.842;2023-04-16T01:48:14;47.17;;;16.38;;
78752;SDS011;68072;51.688;7.842;2023-04-16T01:50:40;51.72;;;19.35;;
78752;SDS011;68072;51.688;7.842;2023-04-16T01:53:06;49.70;;;19.38;;
78752;SDS011;68072;51.688;7.842;2023-04-16T01:55:32;52.20;;;20.40;;
78752;SDS011;68072;51.688;7.842;2023-04-16T01:57:58;57.40;;;19.08;;
78752;SDS011;68072;51.688;7.842;2023-04-16T02:00:23;58.20;;;20.38;;
78752;SDS011;68072;51.688;7.842;2023-04-16T02:02:49;64.07;;;23.63;;
78752;SDS011;68072;51.688;7.842;2023-04-16T02:05:14;51.10;;;19.88;;
78752;SDS011;68072;51.688;7.842;2023-04-16T02:07:40;51.45;;;18.90;;
78752;SDS011;68072;51.688;7.842;2023-04-16T02:10:05;54.47;;;19.85;;
78752;SDS011;68072;51.688;7.842;2023-04-16T02:12:32;49.85;;;19.95;;
78752;SDS011;68072;51.688;7.842;2023-04-16T02:14:58;53.60;;;20.83;;
78752;SDS011;68072;51.688;7.842;2023-04-16T02:17:24;51.88;;;18.83;;
78752;SDS011;68072;51.688;7.842;2023-04-16T02:19:49;52.67;;;20.40;;
78752;SDS011;68072;51.688;7.842;2023-04-16T02:22:14;50.80;;;18.90;;
78752;SDS011;68072;51.688;7.842;2023-04-16T02:24:40;54.78;;;20.80;;
78752;SDS011;68072;51.688;7.842;2023-04-16T02:27:05;49.03;;;19.95;;
78752;SDS011;68072;51.688;7.842;2023-04-16T02:29:31;48.42;;;20.02;;
78752;SDS011;68072;51.688;7.842;2023-04-16T02:31:56;49.97;;;19.27;;
78752;SDS011;68072;51.688;7.842;2023-04-16T02:34:23;48.08;;;21.40;;
78752;SDS011;68072;51.688;7.842;2023-04-16T02:36:49;53.47;;;19.80;;
78752;SDS011;68072;51.688;7.842;2023-04-16T02:39:15;49.30;;;21.17;;
78752;SDS011;68072;51.688;7.842;2023-04-16T02:41:40;55.88;;;21.88;;
78752;SDS011;68072;51.688;7.842;2023-04-16T02:44:06;49.90;;;19.92;;
78752;SDS011;68072;51.688;7.842;2023-04-16T02:46:31;48.03;;;19.83;;
78752;SDS011;68072;51.688;7.842;2023-04-16T02:48:56;51.17;;;20.75;;
78752;SDS011;68072;51.688;7.842;2023-04-16T02:51:22;49.83;;;20.75;;
78752;SDS011;68072;51.688;7.842;2023-04-16T02:53:47;57.65;;;21.05;;
78752;SDS011;68072;51.688;7.842;2023-04-16T02:56:12;51.28;;;20.38;;
78752;SDS011;68072;51.688;7.842;2023-04-16T02:58:38;48.70;;;20.75;;
78752;SDS011;68072;51.688;7.842;2023-04-16T03:01:03;51.17;;;20.80;;
78752;SDS011;68072;51.688;7.842;2023-04-16T03:03:29;44.33;;;18.80;;
78752;SDS011;68072;51.688;7.842;2023-04-16T03:05:54;55.22;;;20.38;;
78752;SDS011;68072;51.688;7.842;2023-04-16T03:08:20;46.53;;;20.52;;
78752;SDS011;68072;51.688;7.842;2023-04-16T03:10:45;53.13;;;20.95;;
78752;SDS011;68072;51.688;7.842;2023-04-16T03:13:10;52.88;;;20.10;;
78752;SDS011;68072;51.688;7.842;2023-04-16T03:15:36;49.75;;;19.95;;
78752;SDS011;68072;51.688;7.842;2023-04-16T03:18:01;47.22;;;21.23;;
78752;SDS011;68072;51.688;7.842;2023-04-16T03:20:27;56.67;;;22.45;;
78752;SDS011;68072;51.688;7.842;2023-04-16T03:22:52;50.58;;;20.48;;
78752;SDS011;68072;51.688;7.842;2023-04-16T03:25:18;52.10;;;22.83;;
78752;SDS011;68072;51.688;7.842;2023-04-16T03:27:43;51.45;;;21.15;;
78752;SDS011;68072;51.688;7.842;2023-04-16T03:30:10;60.97;;;22.27;;
78752;SDS011;68072;51.688;7.842;2023-04-16T03:32:36;53.28;;;22.45;;
78752;SDS011;68072;51.688;7.842;2023-04-16T03:35:02;55.60;;;22.48;;
78752;SDS011;68072;51.688;7.842;2023-04-16T03:37:28;54.75;;;21.77;;
78752;SDS011;68072;51.688;7.842;2023-04-16T03:39:53;61.10;;;22.45;;
78752;SDS011;68072;51.688;7.842;2023-04-16T03:42:19;48.40;;;21.92;;
78752;SDS011;68072;51.688;7.842;2023-04-16T03:44:44;53.72;;;22.60;;
78752;SDS011;68072;51.688;7.842;2023-04-16T03:47:10;49.38;;;21.70;;
78752;SDS011;68072;51.688;7.842;2023-04-16T03:49:35;51.15;;;22.02;;
78752;SDS011;68072;51.688;7.842;2023-04-16T03:52:00;51.70;;;21.75;;
78752;SDS011;68072;51.688;7.842;2023-04-16T03:54:26;47.00;;;21.50;;
78752;SDS011;68072;51.688;7.842;2023-04-16T03:56:52;48.72;;;21.20;;
78752;SDS011;68072;51.688;7.842;2023-04-16T03:59:17;48.30;;;20.85;;
78752;SDS011;68072;51.688;7.842;2023-04-16T04:01:43;55.20;;;21.58;;
78752;SDS011;68072;51.688;7.842;2023-04-16T04:04:08;54.42;;;22.00;;
78752;SDS011;68072;51.688;7.842;2023-04-16T04:06:34;50.80;;;22.15;;
78752;SDS011;68072;51.688;7.842;2023-04-16T04:09:00;50.10;;;22.23;;
78752;SDS011;68072;51.688;7.842;2023-04-16T04:11:25;53.28;;;22.25;;
78752;SDS011;68072;51.688;7.842;2023-04-16T04:13:51;49.22;;;22.23;;
78752;SDS011;68072;51.688;7.842;2023-04-16T04:16:16;45.28;;;21.25;;
78752;SDS011;68072;51.688;7.842;2023-04-16T04:18:41;48.38;;;20.75;;
78752;SDS011;68072;51.688;7.842;2023-04-16T04:21:07;44.58;;;21.85;;
78752;SDS011;68072;51.688;7.842;2023-04-16T04:23:33;58.00;;;23.48;;
78752;SDS011;68072;51.688;7.842;2023-04-16T04:28:27;46.38;;;20.58;;
78752;SDS011;68072;51.688;7.842;2023-04-16T04:30:57;53.30;;;21.10;;
78752;SDS011;68072;51.688;7.842;2023-04-16T04:33:23;48.15;;;21.75;;
78752;SDS011;68072;51.688;7.842;2023-04-16T04:38:15;50.95;;;22.50;;
78752;SDS011;68072;51.688;7.842;2023-04-16T04:40:43;48.67;;;21.95;;
78752;SDS011;68072;51.688;7.842;2023-04-16T04:43:09;51.42;;;23.77;;
78752;SDS011;68072;51.688;7.842;2023-04-16T04:45:35;52.13;;;23.73;;
78752;SDS011;68072;51.688;7.842;2023-04-16T04:48:00;58.85;;;25.13;;
78752;SDS011;68072;51.688;7.842;2023-04-16T04:50:25;52.33;;;23.77;;
78752;SDS011;68072;51.688;7.842;2023-04-16T04:52:51;49.85;;;23.52;;
78752;SDS011;68072;51.688;7.842;2023-04-16T04:55:16;49.88;;;23.48;;
78752;SDS011;68072;51.688;7.842;2023-04-16T04:57:42;50.65;;;22.85;;
78752;SDS011;68072;51.688;7.842;2023-04-16T05:00:07;48.80;;;21.35;;
78752;SDS011;68072;51.688;7.842;2023-04-16T05:02:33;43.85;;;22.30;;
78752;SDS011;68072;51.688;7.842;2023-04-16T05:04:58;49.78;;;22.38;;
78752;SDS011;68072;51.688;7.842;2023-04-16T05:07:24;44.80;;;22.33;;
78752;SDS011;68072;51.688;7.842;2023-04-16T05:09:49;49.67;;;23.00;;
78752;SDS011;68072;51.688;7.842;2023-04-16T05:12:16;50.63;;;22.50;;
78752;SDS011;68072;51.688;7.842;2023-04-16T05:14:41;49.88;;;22.45;;
78752;SDS011;68072;51.688;7.842;2023-04-16T05:17:07;44.78;;;22.50;;
78752;SDS011;68072;51.688;7.842;2023-04-16T05:19:32;48.80;;;23.15;;
78752;SDS011;68072;51.688;7.842;2023-04-16T05:21:58;47.47;;;22.23;;
78752;SDS011;68072;51.688;7.842;2023-04-16T05:24:23;39.03;;;21.63;;
78752;SDS011;68072;51.688;7.842;2023-04-16T05:26:49;47.20;;;21.98;;
78752;SDS011;68072;51.688;7.842;2023-04-16T05:29:15;43.28;;;20.88;;
78752;SDS011;68072;51.688;7.842;2023-04-16T05:31:40;39.92;;;21.17;;
78752;SDS011;68072;51.688;7.842;2023-04-16T05:34:06;45.97;;;20.83;;
78752;SDS011;68072;51.688;7.842;2023-04-16T05:36:31;47.88;;;22.80;;
78752;SDS011;68072;51.688;7.842;2023-04-16T05:38:57;42.45;;;21.05;;
78752;SDS011;68072;51.688;7.842;2023-04-16T05:41:22;43.90;;;20.17;;
78752;SDS011;68072;51.688;7.842;2023-04-16T05:43:47;43.58;;;21.00;;
78752;SDS011;68072;51.688;7.842;2023-04-16T05:46:13;38.58;;;19.67;;
78752;SDS011;68072;51.688;7.842;2023-04-16T05:48:38;38.15;;;20.58;;
78752;SDS011;68072;51.688;7.842;2023-04-16T05:51:04;41.72;;;20.25;;
78752;SDS011;68072;51.688;7.842;2023-04-16T05:53:29;44.35;;;21.50;;
78752;SDS011;68072;51.688;7.842;2023-04-16T05:55:55;41.42;;;20.15;;
78752;SDS011;68072;51.688;7.842;2023-04-16T05:58:20;43.53;;;21.98;;
78752;SDS011;68072;51.688;7.842;2023-04-16T06:00:46;40.65;;;20.13;;
78752;SDS011;68072;51.688;7.842;2023-04-16T06:03:11;46.38;;;21.90;;
78752;SDS011;68072;51.688;7.842;2023-04-16T06:05:36;41.13;;;19.92;;
78752;SDS011;68072;51.688;7.842;2023-04-16T06:08:02;43.15;;;20.35;;
78752;SDS011;68072;51.688;7.842;2023-04-16T06:10:28;40.53;;;19.77;;
78752;SDS011;68072;51.688;7.842;2023-04-16T06:12:54;43.47;;;21.58;;
78752;SDS011;68072;51.688;7.842;2023-04-16T06:15:20;43.53;;;21.20;;
78752;SDS011;68072;51.688;7.842;2023-04-16T06:17:45;46.45;;;21.83;;
78752;SDS011;68072;51.688;7.842;2023-04-16T06:20:11;38.97;;;19.70;;
78752;SDS011;68072;51.688;7.842;2023-04-16T06:22:36;39.13;;;20.42;;
78752;SDS011;68072;51.688;7.842;2023-04-16T06:25:02;41.45;;;21.30;;
78752;SDS011;68072;51.688;7.842;2023-04-16T06:27:28;42.20;;;20.85;;
78752;SDS011;68072;51.688;7.842;2023-04-16T06:29:55;42.67;;;21.38;;
78752;SDS011;68072;51.688;7.842;2023-04-16T06:32:21;46.30;;;23.20;;
78752;SDS011;68072;51.688;7.842;2023-04-16T06:34:46;48.72;;;22.80;;
78752;SDS011;68072;51.688;7.842;2023-04-16T06:37:12;46.10;;;22.75;;
78752;SDS011;68072;51.688;7.842;2023-04-16T06:39:37;49.10;;;23.23;;
78752;SDS011;68072;51.688;7.842;2023-04-16T06:42:03;49.55;;;23.10;;
78752;SDS011;68072;51.688;7.842;2023-04-16T06:44:28;50.70;;;24.58;;
78752;SDS011;68072;51.688;7.842;2023-04-16T06:46:54;48.13;;;22.75;;
78752;SDS011;68072;51.688;7.842;2023-04-16T06:49:20;48.75;;;22.92;;
78752;SDS011;68072;51.688;7.842;2023-04-16T06:51:46;47.63;;;22.02;;
78752;SDS011;68072;51.688;7.842;2023-04-16T06:54:11;45.40;;;23.63;;
78752;SDS011;68072;51.688;7.842;2023-04-16T06:56:36;52.03;;;21.13;;
78752;SDS011;68072;51.688;7.842;2023-04-16T06:59:02;48.85;;;24.10;;
78752;SDS011;68072;51.688;7.842;2023-04-16T07:01:28;50.15;;;24.63;;
78752;SDS011;68072;51.688;7.842;2023-04-16T07:03:55;54.17;;;25.75;;
78752;SDS011;68072;51.688;7.842;2023-04-16T07:06:21;51.47;;;23.17;;
78752;SDS011;68072;51.688;7.842;2023-04-16T07:08:46;47.63;;;24.02;;
78752;SDS011;68072;51.688;7.842;2023-04-16T07:11:12;49.40;;;24.02;;
78752;SDS011;68072;51.688;7.842;2023-04-16T07:13:37;50.15;;;23.65;;
78752;SDS011;68072;51.688;7.842;2023-04-16T07:16:03;50.03;;;23.52;;
78752;SDS011;68072;51.688;7.842;2023-04-16T07:18:28;51.60;;;24.90;;
78752;SDS011;68072;51.688;7.842;2023-04-16T07:20:54;47.85;;;23.02;;
78752;SDS011;68072;51.688;7.842;2023-04-16T07:23:20;50.17;;;24.63;;
78752;SDS011;68072;51.688;7.842;2023-04-16T07:25:45;46.95;;;23.27;;
78752;SDS011;68072;51.688;7.842;2023-04-16T07:28:10;48.50;;;24.60;;
78752;SDS011;68072;51.688;7.842;2023-04-16T07:30:37;50.00;;;23.90;;
78752;SDS011;68072;51.688;7.842;2023-04-16T07:33:02;52.88;;;24.52;;
78752;SDS011;68072;51.688;7.842;2023-04-16T07:35:28;54.03;;;24.83;;
78752;SDS011;68072;51.688;7.842;2023-04-16T07:37:55;53.58;;;25.60;;
78752;SDS011;68072;51.688;7.842;2023-04-16T07:40:21;54.25;;;24.05;;
78752;SDS011;68072;51.688;7.842;2023-04-16T07:42:48;48.55;;;25.23;;
78752;SDS011;68072;51.688;7.842;2023-04-16T07:45:14;51.15;;;24.00;;
78752;SDS011;68072;51.688;7.842;2023-04-16T07:47:39;47.70;;;23.77;;
78752;SDS011;68072;51.688;7.842;2023-04-16T07:50:05;49.10;;;23.95;;
78752;SDS011;68072;51.688;7.842;2023-04-16T07:52:31;48.88;;;25.05;;
78752;SDS011;68072;51.688;7.842;2023-04-16T07:54:57;49.28;;;23.85;;
78752;SDS011;68072;51.688;7.842;2023-04-16T07:57:22;45.88;;;23.17;;
78752;SDS011;68072;51.688;7.842;2023-04-16T07:59:48;46.15;;;24.42;;
78752;SDS011;68072;51.688;7.842;2023-04-16T08:02:14;46.38;;;23.77;;
78752;SDS011;68072;51.688;7.842;2023-04-16T08:04:40;45.45;;;23.58;;
78752;SDS011;68072;51.688;7.842;2023-04-16T08:07:06;53.05;;;24.27;;
78752;SDS011;68072;51.688;7.842;2023-04-16T08:09:32;45.47;;;23.10;;
78752;SDS011;68072;51.688;7.842;2023-04-16T08:11:59;44.53;;;23.70;;
78752;SDS011;68072;51.688;7.842;2023-04-16T08:14:24;47.42;;;22.98;;
78752;SDS011;68072;51.688;7.842;2023-04-16T08:16:50;40.35;;;21.58;;
78752;SDS011;68072;51.688;7.842;2023-04-16T08:19:15;43.90;;;22.13;;
78752;SDS011;68072;51.688;7.842;2023-04-16T08:21:40;44.65;;;21.85;;
78752;SDS011;68072;51.688;7.842;2023-04-16T08:24:06;48.03;;;22.75;;
78752;SDS011;68072;51.688;7.842;2023-04-16T08:26:32;39.13;;;20.67;;
78752;SDS011;68072;51.688;7.842;2023-04-16T08:28:57;44.50;;;20.92;;
78752;SDS011;68072;51.688;7.842;2023-04-16T08:31:23;43.47;;;22.77;;
78752;SDS011;68072;51.688;7.842;2023-04-16T08:33:49;41.05;;;21.55;;
78752;SDS011;68072;51.688;7.842;2023-04-16T08:36:14;42.85;;;21.90;;
78752;SDS011;68072;51.688;7.842;2023-04-16T08:38:40;42.67;;;21.30;;
78752;SDS011;68072;51.688;7.842;2023-04-16T08:41:05;40.33;;;21.33;;
78752;SDS011;68072;51.688;7.842;2023-04-16T08:43:33;39.80;;;21.00;;
78752;SDS011;68072;51.688;7.842;2023-04-16T08:46:02;40.72;;;21.58;;
78752;SDS011;68072;51.688;7.842;2023-04-16T08:48:31;41.83;;;20.23;;
78752;SDS011;68072;51.688;7.842;2023-04-16T08:50:57;40.40;;;21.88;;
78752;SDS011;68072;51.688;7.842;2023-04-16T08:53:31;37.22;;;20.38;;
78752;SDS011;68072;51.688;7.842;2023-04-16T08:56:02;39.08;;;22.17;;
78752;SDS011;68072;51.688;7.842;2023-04-16T08:58:29;35.65;;;19.55;;
78752;SDS011;68072;51.688;7.842;2023-04-16T09:00:56;38.67;;;21.00;;
78752;SDS011;68072;51.688;7.842;2023-04-16T09:03:21;35.85;;;19.45;;
78752;SDS011;68072;51.688;7.842;2023-04-16T09:05:48;34.50;;;19.08;;
78752;SDS011;68072;51.688;7.842;2023-04-16T09:08:13;35.42;;;19.67;;
78752;SDS011;68072;51.688;7.842;2023-04-16T09:10:39;37.88;;;20.45;;
78752;SDS011;68072;51.688;7.842;2023-04-16T09:13:04;35.95;;;19.90;;
78752;SDS011;68072;51.688;7.842;2023-04-16T09:15:30;35.00;;;19.38;;
78752;SDS011;68072;51.688;7.842;2023-04-16T09:17:56;35.28;;;19.25;;
78752;SDS011;68072;51.688;7.842;2023-04-16T09:20:21;33.30;;;19.38;;
78752;SDS011;68072;51.688;7.842;2023-04-16T09:22:47;35.15;;;19.42;;
78752;SDS011;68072;51.688;7.842;2023-04-16T09:25:13;36.63;;;19.58;;
78752;SDS011;68072;51.688;7.842;2023-04-16T09:27:39;35.65;;;19.35;;
78752;SDS011;68072;51.688;7.842;2023-04-16T09:30:26;36.97;;;18.30;;
78752;SDS011;68072;51.688;7.842;2023-04-16T09:32:52;32.17;;;18.23;;
78752;SDS011;68072;51.688;7.842;2023-04-16T09:35:50;36.03;;;19.25;;
78752;SDS011;68072;51.688;7.842;2023-04-16T09:38:17;32.33;;;19.08;;
78752;SDS011;68072;51.688;7.842;2023-04-16T09:40:44;36.13;;;19.45;;
78752;SDS011;68072;51.688;7.842;2023-04-16T09:43:12;36.58;;;18.88;;
78752;SDS011;68072;51.688;7.842;2023-04-16T09:48:15;33.55;;;18.42;;
78752;SDS011;68072;51.688;7.842;2023-04-16T09:50:45;30.70;;;17.67;;
78752;SDS011;68072;51.688;7.842;2023-04-16T09:53:22;30.10;;;16.70;;
78752;SDS011;68072;51.688;7.842;2023-04-16T09:55:49;34.28;;;18.13;;
78752;SDS011;68072;51.688;7.842;2023-04-16T09:58:17;28.58;;;16.88;;
78752;SDS011;68072;51.688;7.842;2023-04-16T10:00:43;28.83;;;17.33;;
78752;SDS011;68072;51.688;7.842;2023-04-16T10:03:09;29.33;;;17.77;;
78752;SDS011;68072;51.688;7.842;2023-04-16T10:05:35;30.70;;;18.92;;
78752;SDS011;68072;51.688;7.842;2023-04-16T10:08:01;34.83;;;18.35;;
78752;SDS011;68072;51.688;7.842;2023-04-16T10:10:27;31.20;;;16.52;;
78752;SDS011;68072;51.688;7.842;2023-04-16T10:12:54;29.60;;;17.33;;
78752;SDS011;68072;51.688;7.842;2023-04-16T10:15:20;28.15;;;16.88;;
78752;SDS011;68072;51.688;7.842;2023-04-16T10:17:46;30.33;;;17.75;;
78752;SDS011;68072;51.688;7.842;2023-04-16T10:20:12;28.25;;;16.38;;
78752;SDS011;68072;51.688;7.842;2023-04-16T10:22:38;27.08;;;15.18;;
78752;SDS011;68072;51.688;7.842;2023-04-16T10:25:04;27.20;;;15.70;;
78752;SDS011;68072;51.688;7.842;2023-04-16T10:27:31;30.27;;;16.63;;
78752;SDS011;68072;51.688;7.842;2023-04-16T10:29:58;26.45;;;17.65;;
78752;SDS011;68072;51.688;7.842;2023-04-16T10:32:24;29.17;;;17.52;;
78752;SDS011;68072;51.688;7.842;2023-04-16T10:34:53;31.80;;;17.48;;
78752;SDS011;68072;51.688;7.842;2023-04-16T10:37:27;27.25;;;16.08;;
78752;SDS011;68072;51.688;7.842;2023-04-16T10:39:54;27.20;;;15.93;;
78752;SDS011;68072;51.688;7.842;2023-04-16T10:42:20;24.25;;;14.50;;
78752;SDS011;68072;51.688;7.842;2023-04-16T10:44:45;26.38;;;15.32;;
78752;SDS011;68072;51.688;7.842;2023-04-16T10:47:11;23.70;;;14.93;;
78752;SDS011;68072;51.688;7.842;2023-04-16T10:49:38;26.13;;;15.85;;
78752;SDS011;68072;51.688;7.842;2023-04-16T10:52:14;23.95;;;15.23;;
78752;SDS011;68072;51.688;7.842;2023-04-16T10:54:43;24.90;;;15.48;;
78752;SDS011;68072;51.688;7.842;2023-04-16T10:57:14;29.77;;;16.25;;
78752;SDS011;68072;51.688;7.842;2023-04-16T10:59:42;23.35;;;14.85;;
78752;SDS011;68072;51.688;7.842;2023-04-16T11:02:11;26.63;;;15.88;;
78752;SDS011;68072;51.688;7.842;2023-04-16T11:04:39;23.60;;;15.32;;
78752;SDS011;68072;51.688;7.842;2023-04-16T11:15:08;25.70;;;15.60;;
78752;SDS011;68072;51.688;7.842;2023-04-16T11:17:39;25.60;;;15.75;;
78752;SDS011;68072;51.688;7.842;2023-04-16T11:20:17;27.75;;;15.00;;
78752;SDS011;68072;51.688;7.842;2023-04-16T11:22:53;25.55;;;15.77;;
78752;SDS011;68072;51.688;7.842;2023-04-16T11:27:49;23.55;;;14.50;;
78752;SDS011;68072;51.688;7.842;2023-04-16T11:30:16;25.15;;;15.15;;
78752;SDS011;68072;51.688;7.842;2023-04-16T11:32:42;25.65;;;14.95;;
78752;SDS011;68072;51.688;7.842;2023-04-16T11:37:41;24.55;;;14.95;;
78752;SDS011;68072;51.688;7.842;2023-04-16T11:40:07;25.33;;;14.88;;
78752;SDS011;68072;51.688;7.842;2023-04-16T11:42:34;25.02;;;15.25;;
78752;SDS011;68072;51.688;7.842;2023-04-16T11:45:04;21.95;;;13.15;;
78752;SDS011;68072;51.688;7.842;2023-04-16T11:47:31;21.40;;;13.75;;
78752;SDS011;68072;51.688;7.842;2023-04-16T11:49:57;25.02;;;15.27;;
78752;SDS011;68072;51.688;7.842;2023-04-16T11:52:26;22.83;;;13.98;;
78752;SDS011;68072;51.688;7.842;2023-04-16T11:54:52;23.50;;;13.30;;
78752;SDS011;68072;51.688;7.842;2023-04-16T11:57:30;25.98;;;13.75;;
78752;SDS011;68072;51.688;7.842;2023-04-16T11:59:56;26.73;;;14.40;;
78752;SDS011;68072;51.688;7.842;2023-04-16T12:05:06;21.35;;;12.55;;
78752;SDS011;68072;51.688;7.842;2023-04-16T12:08:00;20.90;;;11.80;;
78752;SDS011;68072;51.688;7.842;2023-04-16T12:10:27;22.60;;;12.48;;
78752;SDS011;68072;51.688;7.842;2023-04-16T12:15:19;22.02;;;12.38;;
78752;SDS011;68072;51.688;7.842;2023-04-16T12:17:44;19.30;;;12.40;;
78752;SDS011;68072;51.688;7.842;2023-04-16T12:20:13;19.20;;;11.85;;
78752;SDS011;68072;51.688;7.842;2023-04-16T12:22:43;18.83;;;11.90;;
78752;SDS011;68072;51.688;7.842;2023-04-16T12:25:11;16.50;;;11.30;;
78752;SDS011;68072;51.688;7.842;2023-04-16T12:27:44;16.75;;;12.02;;
78752;SDS011;68072;51.688;7.842;2023-04-16T12:30:11;19.63;;;11.65;;
78752;SDS011;68072;51.688;7.842;2023-04-16T12:32:37;21.55;;;11.98;;
78752;SDS011;68072;51.688;7.842;2023-04-16T12:35:02;20.98;;;11.25;;
78752;SDS011;68072;51.688;7.842;2023-04-16T12:37:29;18.63;;;11.25;;
78752;SDS011;68072;51.688;7.842;2023-04-16T12:39:54;19.58;;;12.27;;
78752;SDS011;68072;51.688;7.842;2023-04-16T12:42:20;16.92;;;11.05;;
78752;SDS011;68072;51.688;7.842;2023-04-16T12:44:45;18.63;;;12.45;;
78752;SDS011;68072;51.688;7.842;2023-04-16T12:47:11;20.30;;;12.43;;
78752;SDS011;68072;51.688;7.842;2023-04-16T12:49:36;17.52;;;11.45;;
78752;SDS011;68072;51.688;7.842;2023-04-16T12:52:02;19.92;;;11.50;;
78752;SDS011;68072;51.688;7.842;2023-04-16T12:54:27;18.00;;;11.32;;
78752;SDS011;68072;51.688;7.842;2023-04-16T12:56:55;17.13;;;10.73;;
78752;SDS011;68072;51.688;7.842;2023-04-16T12:59:20;16.13;;;10.23;;
78752;SDS011;68072;51.688;7.842;2023-04-16T13:01:46;17.83;;;11.27;;
78752;SDS011;68072;51.688;7.842;2023-04-16T13:04:11;18.92;;;12.32;;
78752;SDS011;68072;51.688;7.842;2023-04-16T13:06:37;15.93;;;10.13;;
78752;SDS011;68072;51.688;7.842;2023-04-16T13:09:02;18.05;;;10.40;;
78752;SDS011;68072;51.688;7.842;2023-04-16T13:11:28;15.77;;;10.98;;
78752;SDS011;68072;51.688;7.842;2023-04-16T13:13:54;19.55;;;11.25;;
78752;SDS011;68072;51.688;7.842;2023-04-16T13:16:19;16.20;;;10.52;;
78752;SDS011;68072;51.688;7.842;2023-04-16T13:18:45;15.70;;;10.00;;
78752;SDS011;68072;51.688;7.842;2023-04-16T13:21:10;16.63;;;10.40;;
78752;SDS011;68072;51.688;7.842;2023-04-16T13:23:36;15.93;;;10.38;;
78752;SDS011;68072;51.688;7.842;2023-04-16T13:26:01;17.23;;;10.93;;
78752;SDS011;68072;51.688;7.842;2023-04-16T13:28:27;17.40;;;9.90;;
78752;SDS011;68072;51.688;7.842;2023-04-16T13:30:52;25.90;;;11.30;;
78752;SDS011;68072;51.688;7.842;2023-04-16T13:33:18;19.73;;;11.75;;
78752;SDS011;68072;51.688;7.842;2023-04-16T13:35:45;24.75;;;10.88;;
78752;SDS011;68072;51.688;7.842;2023-04-16T13:38:11;16.58;;;11.02;;
78752;SDS011;68072;51.688;7.842;2023-04-16T13:40:37;15.82;;;9.90;;
78752;SDS011;68072;51.688;7.842;2023-04-16T13:43:02;13.82;;;8.88;;
78752;SDS011;68072;51.688;7.842;2023-04-16T13:45:27;15.30;;;9.80;;
78752;SDS011;68072;51.688;7.842;2023-04-16T13:47:53;16.15;;;10.02;;
78752;SDS011;68072;51.688;7.842;2023-04-16T13:50:19;17.45;;;10.18;;
78752;SDS011;68072;51.688;7.842;2023-04-16T13:52:45;15.27;;;9.57;;
78752;SDS011;68072;51.688;7.842;2023-04-16T13:55:11;13.50;;;8.32;;
78752;SDS011;68072;51.688;7.842;2023-04-16T13:57:43;15.32;;;9.23;;
78752;SDS011;68072;51.688;7.842;2023-04-16T14:00:10;14.02;;;9.30;;
78752;SDS011;68072;51.688;7.842;2023-04-16T14:02:36;16.02;;;9.50;;
78752;SDS011;68072;51.688;7.842;2023-04-16T14:05:01;15.18;;;9.57;;
78752;SDS011;68072;51.688;7.842;2023-04-16T14:07:27;16.80;;;9.63;;
78752;SDS011;68072;51.688;7.842;2023-04-16T14:09:53;15.35;;;9.75;;
78752;SDS011;68072;51.688;7.842;2023-04-16T14:12:18;14.05;;;9.48;;
78752;SDS011;68072;51.688;7.842;2023-04-16T14:14:44;14.55;;;8.32;;
78752;SDS011;68072;51.688;7.842;2023-04-16T14:17:10;13.52;;;9.13;;
78752;SDS011;68072;51.688;7.842;2023-04-16T14:19:35;16.27;;;8.60;;
78752;SDS011;68072;51.688;7.842;2023-04-16T14:22:01;14.20;;;9.00;;
78752;SDS011;68072;51.688;7.842;2023-04-16T14:24:26;14.60;;;9.68;;
78752;SDS011;68072;51.688;7.842;2023-04-16T14:26:52;13.93;;;8.88;;
78752;SDS011;68072;51.688;7.842;2023-04-16T14:29:17;17.00;;;9.18;;
78752;SDS011;68072;51.688;7.842;2023-04-16T14:31:43;14.73;;;9.52;;
78752;SDS011;68072;51.688;7.842;2023-04-16T14:34:08;15.07;;;10.07;;
78752;SDS011;68072;51.688;7.842;2023-04-16T14:36:34;13.85;;;9.10;;
78752;SDS011;68072;51.688;7.842;2023-04-16T14:39:00;16.50;;;9.93;;
78752;SDS011;68072;51.688;7.842;2023-04-16T14:41:25;13.35;;;9.45;;
78752;SDS011;68072;51.688;7.842;2023-04-16T14:43:51;14.75;;;9.07;;